Aérodrome :
LOGIN :

S'inscrire | Disclaimer

   EN    FR    IT 

 










Légende :    VFR   VFR Marginal   IFR   IFR Intensif   IFR Très Intensif
Visi : 
Plafond : 
>= 8 km
>= 3000ft
5 à 8 km
1000 à 3000 ft
1500m à 5 km
500 à 1000 ft
800 à 1500m
200 à 500 ft
< 800m
< 200 ft
Symboles :   Orages  Brouillard  Fortes neiges  Fortes précipitations  Vent > 20 kt
SIGMETs :   Divers  Orages  Givrage  Turbulence  Onde Orograph.  Cendres Volcan.






- Altitude de l'aérodrome : 2001 ft
- Code IATA : MAD


LEMD - Madrid

DERNIER METAR :
  • 171630Z 24008KT 210V290 9999 FEW043 12/05 Q1030 NOSIG

METARs EXPIRÉS :
  • 171600Z 21002KT 9999 SCT040 13/05 Q1030 NOSIG
  • 171530Z 34005KT 290V360 9999 FEW040 13/05 Q1029 NOSIG
  • 171500Z 35003KT 310V070 9999 SCT043 12/04 Q1030 NOSIG
  • 171430Z 31005KT 220V010 9999 FEW043 12/04 Q1029 NOSIG
  • 171400Z 29003KT 9999 FEW046 13/06 Q1030 NOSIG

TAF TAF LEMD
Valide du 17 à 12h jusqu'au 18 à 18h UTC


171100Z 1712/1818 25010KT 9999 SCT030 TX13/1715Z TN02/1806Z
PROB40
TEMPO 1712/1716 25015G25KT
BECMG 1719/1721 VRB04KT
TEMPO 1804/1811 3000 RA
PROB40
TEMPO 1804/1812 BKN012
PROB40
TEMPO 1812/1818 3500 BR BKN008



MET'MAP, la Météo Aéronautique d'un coup d'oeil ! - Copyright ORBIFLY Décembre 2007 - Disclaimer

ORBIFLY MET'MAP TEAM :

Programmation & Développement : Alexandra Zaïnal
Sur une idée originale de : Baudouin d'Aumeries
Assistance à la programmation : Marc-Olivier Méhu
Soutien technique & logistique : Manuel Goepfert

Contact : metmap@orbifly.com




SOURCES & CREDITS :

   NOAA